East Saint Louis, Illinois
Current Conditions -  °F | °C
As of 4:53 PM on Thursday 23 Oct 2014 (Local Time) from KCPS Reporting Station
Clear Clear  
Wind Chill: 64°   Ceiling: Unl
Heat Index: 64°   Visibility: 10mi
Dew Point: 45°   Wind: 5mph
Humidity: 50%   Direction: NA
Pressure: 30.1"   Gusts: NA
Location:  38.57°N, 90.15°W
Report Text: KCPS 232153Z VRB04KT 10SM CLR 18/07 A3010 RMK AO2 SLP193 T01780072
Loading
Personal Weather Stations






























Interactive Weather Map
Tropical Storm Tracking
New forecast layout! Learn more

10-Day Weather Forecast

Advertisements
Track Severe Weather on mobile